Time;durP1;ratioP1;P1;durP2;ratioP2;P2;SDS_P1;SDS_P2;PMS_P1;PMS_P2;Temp;Humidity;BMP_temperature;BMP_pressure;BME280_temperature;BME280_humidity;BME280_pressure;Samples;Min_cycle;Max_cycle;Signal;HPM_P1;HPM_P2
2021/12/25 00:01:40;;;;;;;5.57;5.03;;;;;;;;;;5011158;28;20068;-49
2021/12/25 00:04:07;;;;;;;5.90;4.40;;;;;;;;;;5013561;28;20134;-51
2021/12/25 00:06:34;;;;;;;5.22;4.53;;;;;;;;;;5012660;28;20038;-50
2021/12/25 00:08:59;;;;;;;5.30;4.78;;;;;;;;;;5007983;28;20042;-49
2021/12/25 00:11:25;;;;;;;7.25;6.18;;;;;;;;;;5010610;28;20091;-48
2021/12/25 00:13:50;;;;;;;4.95;4.45;;;;;;;;;;5012108;28;20076;-49
2021/12/25 00:16:15;;;;;;;5.63;4.53;;;;;;;;;;5012101;28;20029;-50
2021/12/25 00:18:41;;;;;;;6.03;5.43;;;;;;;;;;5012687;28;20459;-49
2021/12/25 00:21:08;;;;;;;5.60;5.10;;;;;;;;;;5008047;28;20448;-57
2021/12/25 00:23:33;;;;;;;6.30;5.28;;;;;;;;;;5004709;28;20480;-58
2021/12/25 00:26:07;;;;;;;6.55;5.07;;;;;;;;;;5004771;28;20033;-57
2021/12/25 00:35:57;;;;;;;5.32;4.70;;;;;;;;;;5007128;28;20368;-58
2021/12/25 00:38:23;;;;;;;7.38;6.57;;;;;;;;;;5013781;28;20029;-58
2021/12/25 00:40:48;;;;;;;6.28;5.00;;;;;;;;;;5012388;28;20029;-58
2021/12/25 00:43:13;;;;;;;6.20;5.53;;;;;;;;;;5010950;28;20048;-58
2021/12/25 00:45:39;;;;;;;10.07;5.95;;;;;;;;;;5012351;28;20022;-58
2021/12/25 00:48:05;;;;;;;10.95;6.07;;;;;;;;;;5010107;28;20037;-57
2021/12/25 00:50:30;;;;;;;5.93;5.32;;;;;;;;;;5013567;28;20101;-57
2021/12/25 00:52:55;;;;;;;5.82;5.13;;;;;;;;;;5011839;28;20537;-58
2021/12/25 00:55:21;;;;;;;4.60;4.20;;;;;;;;;;5008178;28;20023;-58
2021/12/25 00:57:46;;;;;;;6.78;5.32;;;;;;;;;;5003403;28;20049;-57
2021/12/25 01:00:13;;;;;;;4.47;3.85;;;;;;;;;;5003778;28;20112;-57
2021/12/25 01:02:41;;;;;;;4.47;3.97;;;;;;;;;;5004503;28;20456;-57
2021/12/25 01:05:08;;;;;;;6.53;5.93;;;;;;;;;;5005478;28;20029;-57
2021/12/25 01:07:34;;;;;;;5.70;5.10;;;;;;;;;;5012964;28;20029;-58
2021/12/25 01:10:02;;;;;;;6.65;5.95;;;;;;;;;;5011729;28;20032;-57
2021/12/25 01:12:32;;;;;;;6.22;4.95;;;;;;;;;;5009477;28;20041;-59
2021/12/25 01:15:00;;;;;;;5.78;4.93;;;;;;;;;;5005959;28;20478;-59
2021/12/25 01:38:49;;;;;;;6.78;5.78;;;;;;;;;;5002845;28;20022;-58
2021/12/25 01:41:39;;;;;;;4.93;4.30;;;;;;;;;;5003371;28;20021;-58
2021/12/25 01:49:28;;;;;;;5.30;4.80;;;;;;;;;;5007575;28;20364;-57
2021/12/25 01:51:53;;;;;;;6.95;6.20;;;;;;;;;;5009347;28;20037;-57
2021/12/25 01:54:19;;;;;;;5.20;4.68;;;;;;;;;;5000939;28;20033;-57
2021/12/25 01:56:46;;;;;;;5.90;5.28;;;;;;;;;;5008045;28;20045;-56
2021/12/25 01:59:12;;;;;;;8.10;5.90;;;;;;;;;;5004492;28;20034;-56
2021/12/25 02:01:37;;;;;;;7.18;6.22;;;;;;;;;;5006419;28;20200;-57
2021/12/25 02:04:03;;;;;;;6.18;5.57;;;;;;;;;;5004539;28;20041;-57
2021/12/25 02:06:28;;;;;;;8.18;5.85;;;;;;;;;;5004568;28;20053;-57
2021/12/25 02:08:54;;;;;;;5.55;5.00;;;;;;;;;;5005484;28;20338;-56
2021/12/25 02:11:19;;;;;;;5.57;4.93;;;;;;;;;;4998199;28;20459;-58
2021/12/25 02:13:46;;;;;;;6.53;5.47;;;;;;;;;;5003294;28;20069;-58
2021/12/25 02:16:15;;;;;;;5.60;4.93;;;;;;;;;;5000271;28;20060;-56
2021/12/25 02:21:19;;;;;;;5.55;5.03;;;;;;;;;;5002046;28;20116;-57
2021/12/25 02:23:46;;;;;;;7.70;5.43;;;;;;;;;;4999896;28;20420;-58
2021/12/25 02:26:12;;;;;;;6.78;5.32;;;;;;;;;;5000335;28;20438;-57
2021/12/25 02:28:37;;;;;;;8.60;5.35;;;;;;;;;;5009546;28;20038;-57
2021/12/25 02:31:09;;;;;;;7.28;6.05;;;;;;;;;;5005735;28;20030;-57
2021/12/25 02:33:35;;;;;;;5.45;4.93;;;;;;;;;;5005982;28;20706;-57
2021/12/25 02:36:03;;;;;;;6.45;5.85;;;;;;;;;;5008616;28;20037;-57
2021/12/25 02:38:29;;;;;;;5.50;5.00;;;;;;;;;;5008120;28;20550;-57
2021/12/25 02:40:55;;;;;;;5.72;4.57;;;;;;;;;;5006216;28;20086;-57
2021/12/25 02:43:21;;;;;;;5.13;4.63;;;;;;;;;;4997378;28;20026;-58
2021/12/25 02:45:46;;;;;;;5.82;5.28;;;;;;;;;;5002589;28;20113;-57
2021/12/25 02:48:16;;;;;;;5.60;4.97;;;;;;;;;;5002106;28;20085;-57
2021/12/25 02:50:42;;;;;;;9.05;6.15;;;;;;;;;;5001244;28;20034;-58
2021/12/25 02:53:10;;;;;;;5.72;5.18;;;;;;;;;;5002326;28;20029;-57
2021/12/25 02:55:38;;;;;;;7.45;5.90;;;;;;;;;;5004689;28;20053;-56
2021/12/25 02:58:04;;;;;;;7.53;5.88;;;;;;;;;;5006349;28;20038;-54
2021/12/25 03:00:39;;;;;;;5.20;4.32;;;;;;;;;;5005014;28;20037;-54
2021/12/25 03:03:06;;;;;;;5.53;4.80;;;;;;;;;;5010372;28;20030;-53
2021/12/25 03:05:31;;;;;;;5.40;4.60;;;;;;;;;;5009949;28;20037;-51
2021/12/25 03:07:57;;;;;;;5.45;4.95;;;;;;;;;;5004832;28;20033;-52
2021/12/25 03:10:23;;;;;;;5.35;4.85;;;;;;;;;;5002340;28;20065;-54
2021/12/25 03:13:16;;;;;;;6.88;5.60;;;;;;;;;;5004071;28;20040;-54
2021/12/25 03:15:47;;;;;;;6.88;5.97;;;;;;;;;;5008214;28;20432;-54
2021/12/25 03:18:19;;;;;;;5.38;4.60;;;;;;;;;;5000392;28;20177;-54
2021/12/25 03:20:47;;;;;;;6.90;5.97;;;;;;;;;;5005625;28;20642;-54
2021/12/25 03:23:19;;;;;;;6.18;5.57;;;;;;;;;;5007085;28;20046;-54
2021/12/25 03:25:45;;;;;;;9.50;7.22;;;;;;;;;;5012117;28;20141;-54
2021/12/25 03:28:11;;;;;;;7.43;5.78;;;;;;;;;;5002670;28;20032;-53
2021/12/25 03:30:39;;;;;;;5.15;4.63;;;;;;;;;;5007285;28;20030;-53
2021/12/25 03:33:15;;;;;;;6.45;5.85;;;;;;;;;;5012628;28;20029;-54
2021/12/25 03:35:41;;;;;;;6.13;5.53;;;;;;;;;;5008734;28;20034;-54
2021/12/25 03:38:10;;;;;;;6.03;5.43;;;;;;;;;;5000970;28;20100;-53
2021/12/25 03:40:36;;;;;;;6.07;5.47;;;;;;;;;;5027684;28;20061;-53
2021/12/25 03:43:02;;;;;;;6.82;5.60;;;;;;;;;;5013530;28;20026;-54
2021/12/25 03:45:31;;;;;;;6.85;5.20;;;;;;;;;;5011121;28;20033;-54
2021/12/25 03:48:08;;;;;;;6.38;5.78;;;;;;;;;;5008925;28;20052;-53
2021/12/25 03:58:49;;;;;;;6.22;5.13;;;;;;;;;;5010373;28;20045;-52
2021/12/25 04:04:04;;;;;;;5.20;4.25;;;;;;;;;;5005768;28;20459;-52
2021/12/25 04:06:30;;;;;;;7.43;5.97;;;;;;;;;;5002012;28;20129;-50
2021/12/25 04:08:57;;;;;;;5.65;4.97;;;;;;;;;;5009064;28;20437;-53
2021/12/25 04:11:28;;;;;;;5.47;4.95;;;;;;;;;;5010005;28;20360;-53
2021/12/25 04:13:55;;;;;;;6.97;5.22;;;;;;;;;;5007663;28;20060;-52
2021/12/25 04:16:20;;;;;;;9.32;4.85;;;;;;;;;;5007861;28;20464;-50
2021/12/25 04:18:45;;;;;;;4.95;4.45;;;;;;;;;;5008402;28;20048;-50
2021/12/25 04:21:11;;;;;;;5.90;5.32;;;;;;;;;;5004103;28;20041;-50
2021/12/25 04:23:40;;;;;;;6.18;5.13;;;;;;;;;;5010452;28;20034;-54
2021/12/25 04:26:05;;;;;;;5.07;4.57;;;;;;;;;;5008796;28;20026;-52
2021/12/25 05:01:45;;;;;;;5.43;4.80;;;;;;;;;;5004507;28;20060;-49
2021/12/25 05:03:49;;;;;;;4.10;3.70;;;;;;;;;;5006524;28;20042;-48
2021/12/25 05:06:14;;;;;;;5.45;4.95;;;;;;;;;;5009181;28;20600;-50
2021/12/25 05:08:40;;;;;;;7.03;4.25;;;;;;;;;;5009811;28;20025;-51
2021/12/25 05:11:05;;;;;;;8.98;4.68;;;;;;;;;;5008985;28;20030;-49
2021/12/25 05:13:32;;;;;;;4.57;4.18;;;;;;;;;;5011125;28;20048;-49
2021/12/25 05:15:58;;;;;;;4.95;4.45;;;;;;;;;;4997893;28;20030;-50
2021/12/25 05:18:23;;;;;;;4.72;4.28;;;;;;;;;;5002266;28;20337;-50
2021/12/25 05:20:49;;;;;;;6.43;5.20;;;;;;;;;;5004500;28;20030;-51
2021/12/25 05:23:14;;;;;;;4.32;3.92;;;;;;;;;;5005451;28;20025;-51
2021/12/25 05:25:40;;;;;;;5.97;4.60;;;;;;;;;;5008520;28;20037;-50
2021/12/25 05:28:06;;;;;;;4.53;4.13;;;;;;;;;;5008418;28;20156;-52
2021/12/25 05:30:31;;;;;;;4.00;3.60;;;;;;;;;;5006848;28;20107;-52
2021/12/25 05:32:57;;;;;;;4.03;3.63;;;;;;;;;;5008761;28;20483;-51
2021/12/25 05:35:22;;;;;;;4.03;3.67;;;;;;;;;;5009765;28;20026;-52
2021/12/25 05:37:48;;;;;;;5.28;4.68;;;;;;;;;;5011813;28;20030;-54
2021/12/25 05:40:14;;;;;;;5.10;4.60;;;;;;;;;;5004658;28;20361;-52
2021/12/25 05:42:40;;;;;;;4.53;4.13;;;;;;;;;;5011449;28;20045;-50
2021/12/25 05:45:06;;;;;;;4.45;4.05;;;;;;;;;;5009940;28;20037;-52
2021/12/25 05:47:32;;;;;;;6.32;5.47;;;;;;;;;;5006340;28;20070;-53
2021/12/25 05:49:58;;;;;;;8.18;5.68;;;;;;;;;;5007023;28;20073;-53
2021/12/25 05:52:24;;;;;;;4.97;4.40;;;;;;;;;;5004742;28;20459;-49
2021/12/25 05:54:50;;;;;;;6.85;5.30;;;;;;;;;;5004793;28;20084;-53
2021/12/25 05:57:15;;;;;;;5.82;3.72;;;;;;;;;;5001097;28;20080;-54
2021/12/25 05:59:40;;;;;;;5.28;4.25;;;;;;;;;;5010763;28;20042;-51
2021/12/25 06:02:06;;;;;;;5.00;4.43;;;;;;;;;;5007462;28;20029;-54
2021/12/25 06:04:31;;;;;;;5.85;4.65;;;;;;;;;;5007616;28;20443;-50
2021/12/25 06:06:57;;;;;;;4.72;4.28;;;;;;;;;;5002878;28;20154;-53
2021/12/25 06:09:23;;;;;;;5.00;4.15;;;;;;;;;;5002549;28;20423;-53
2021/12/25 06:11:48;;;;;;;5.80;4.45;;;;;;;;;;5003309;28;20104;-50
2021/12/25 06:14:19;;;;;;;4.18;3.78;;;;;;;;;;5009008;28;20694;-53
2021/12/25 06:16:46;;;;;;;5.35;4.85;;;;;;;;;;5010489;28;20026;-52
2021/12/25 06:19:12;;;;;;;4.82;4.32;;;;;;;;;;5006706;28;20172;-54
2021/12/25 06:21:37;;;;;;;4.40;3.95;;;;;;;;;;5007937;28;20105;-54
2021/12/25 06:24:05;;;;;;;3.38;3.05;;;;;;;;;;5010174;28;20846;-51
2021/12/25 06:26:32;;;;;;;4.70;3.78;;;;;;;;;;5005891;28;20030;-54
2021/12/25 06:28:57;;;;;;;4.75;3.97;;;;;;;;;;5005686;28;20088;-52
2021/12/25 06:31:23;;;;;;;5.32;4.45;;;;;;;;;;4998941;28;20030;-51
2021/12/25 06:33:49;;;;;;;3.83;3.38;;;;;;;;;;5005114;28;20042;-52
2021/12/25 06:36:14;;;;;;;7.07;5.13;;;;;;;;;;5004841;28;20034;-53
2021/12/25 06:38:41;;;;;;;3.63;3.33;;;;;;;;;;5005505;28;20058;-52
2021/12/25 06:41:07;;;;;;;4.25;3.72;;;;;;;;;;4999606;28;20030;-51
2021/12/25 06:43:33;;;;;;;6.68;3.65;;;;;;;;;;5001912;28;20034;-52
2021/12/25 06:45:58;;;;;;;4.57;3.92;;;;;;;;;;5006825;28;20037;-51
2021/12/25 06:48:25;;;;;;;5.63;5.05;;;;;;;;;;5009105;28;20392;-53
2021/12/25 06:50:51;;;;;;;4.07;3.67;;;;;;;;;;5006044;28;20046;-54
2021/12/25 06:53:16;;;;;;;4.05;3.65;;;;;;;;;;5010803;28;20642;-52
2021/12/25 06:55:41;;;;;;;4.57;4.13;;;;;;;;;;5004578;28;20026;-52
2021/12/25 06:58:07;;;;;;;4.65;4.07;;;;;;;;;;5008015;28;20502;-53
2021/12/25 07:00:32;;;;;;;5.57;3.78;;;;;;;;;;5008187;28;20427;-53
2021/12/25 07:02:57;;;;;;;5.57;4.50;;;;;;;;;;5014587;28;20030;-54
2021/12/25 07:05:23;;;;;;;4.20;3.75;;;;;;;;;;5002139;28;20031;-52
2021/12/25 07:07:50;;;;;;;4.00;3.58;;;;;;;;;;5004925;28;20022;-53
2021/12/25 07:10:15;;;;;;;3.42;3.13;;;;;;;;;;5000581;28;20092;-54
2021/12/25 07:12:45;;;;;;;4.78;3.53;;;;;;;;;;5003453;28;20030;-51
2021/12/25 07:15:11;;;;;;;4.68;3.58;;;;;;;;;;5007259;28;20030;-51
2021/12/25 07:17:36;;;;;;;3.47;3.17;;;;;;;;;;5010223;28;20040;-52
2021/12/25 07:20:03;;;;;;;5.43;4.22;;;;;;;;;;5013535;28;20038;-52
2021/12/25 07:22:28;;;;;;;3.80;3.38;;;;;;;;;;5004290;28;20387;-53
2021/12/25 07:24:54;;;;;;;4.13;3.10;;;;;;;;;;5009992;28;20022;-55
2021/12/25 07:27:19;;;;;;;4.65;3.70;;;;;;;;;;5007861;28;20030;-54
2021/12/25 07:29:44;;;;;;;3.72;3.38;;;;;;;;;;5008091;28;20045;-54
2021/12/25 07:32:10;;;;;;;4.85;3.65;;;;;;;;;;5013123;28;20645;-53
2021/12/25 07:34:36;;;;;;;3.83;3.42;;;;;;;;;;5010996;28;20419;-55
2021/12/25 07:37:03;;;;;;;3.97;3.60;;;;;;;;;;5008402;28;20053;-54
2021/12/25 07:39:28;;;;;;;3.42;3.10;;;;;;;;;;5002693;28;20045;-54
2021/12/25 07:41:54;;;;;;;3.47;3.15;;;;;;;;;;5000839;28;20375;-54
2021/12/25 07:44:19;;;;;;;4.05;3.60;;;;;;;;;;4979728;28;20065;-54
2021/12/25 07:46:45;;;;;;;3.83;3.42;;;;;;;;;;4999759;28;20030;-51
2021/12/25 07:49:19;;;;;;;3.40;3.10;;;;;;;;;;5003057;28;20030;-54
2021/12/25 07:51:45;;;;;;;3.03;2.63;;;;;;;;;;5005618;28;20230;-54
2021/12/25 07:54:11;;;;;;;3.25;2.65;;;;;;;;;;5008099;28;20033;-54
2021/12/25 07:56:36;;;;;;;3.33;3.03;;;;;;;;;;5007835;28;20056;-55
2021/12/25 07:59:02;;;;;;;3.58;3.28;;;;;;;;;;5003074;28;20031;-53
2021/12/25 08:01:28;;;;;;;3.58;3.20;;;;;;;;;;5008542;28;20066;-54
2021/12/25 08:03:53;;;;;;;3.70;3.17;;;;;;;;;;5009388;28;20119;-54
2021/12/25 08:06:18;;;;;;;3.92;3.35;;;;;;;;;;5007693;28;20038;-54
2021/12/25 08:08:44;;;;;;;6.03;3.75;;;;;;;;;;5009300;28;20049;-55
2021/12/25 08:11:10;;;;;;;3.80;3.17;;;;;;;;;;5006402;28;21157;-54
2021/12/25 08:13:35;;;;;;;4.05;3.65;;;;;;;;;;5009269;28;20061;-56
2021/12/25 08:16:00;;;;;;;3.35;3.05;;;;;;;;;;5007413;28;20033;-54
2021/12/25 08:18:26;;;;;;;3.88;3.42;;;;;;;;;;5008392;28;20061;-55
2021/12/25 08:20:52;;;;;;;4.97;3.45;;;;;;;;;;5004232;28;20053;-54
2021/12/25 08:23:18;;;;;;;4.15;3.47;;;;;;;;;;5003958;28;20041;-55
2021/12/25 08:25:43;;;;;;;5.60;3.15;;;;;;;;;;5006432;28;20113;-54
2021/12/25 08:28:09;;;;;;;3.65;3.35;;;;;;;;;;5010577;28;20019;-54
2021/12/25 08:30:35;;;;;;;7.93;4.18;;;;;;;;;;5010424;28;20025;-52
2021/12/25 08:33:00;;;;;;;3.55;3.25;;;;;;;;;;5009907;28;20460;-56
2021/12/25 08:35:28;;;;;;;8.30;3.67;;;;;;;;;;5007685;28;20037;-55
2021/12/25 08:37:54;;;;;;;3.53;3.22;;;;;;;;;;5011586;28;20372;-55
2021/12/25 08:40:19;;;;;;;3.22;2.92;;;;;;;;;;5010376;28;20026;-55
2021/12/25 08:42:48;;;;;;;3.60;3.30;;;;;;;;;;5008750;28;20026;-54
2021/12/25 08:48:00;;;;;;;3.15;2.85;;;;;;;;;;5011340;28;20036;-54
2021/12/25 08:50:26;;;;;;;3.65;2.72;;;;;;;;;;5011158;28;20042;-54
2021/12/25 08:52:51;;;;;;;5.78;2.90;;;;;;;;;;5010156;28;20038;-54
2021/12/25 08:55:17;;;;;;;3.28;2.83;;;;;;;;;;5008073;28;20030;-54
2021/12/25 08:57:43;;;;;;;3.10;2.70;;;;;;;;;;5006556;28;20204;-54
2021/12/25 09:00:09;;;;;;;2.90;2.60;;;;;;;;;;5000400;28;20026;-54
2021/12/25 09:02:35;;;;;;;3.72;3.38;;;;;;;;;;5005726;28;20029;-54
2021/12/25 09:05:00;;;;;;;3.30;2.72;;;;;;;;;;5009010;28;20513;-53
2021/12/25 09:07:25;;;;;;;4.13;3.38;;;;;;;;;;5011312;28;20038;-55
2021/12/25 09:09:51;;;;;;;3.47;3.10;;;;;;;;;;5008458;28;20029;-56
2021/12/25 09:12:19;;;;;;;3.33;3.03;;;;;;;;;;5013324;28;20034;-55
2021/12/25 09:14:45;;;;;;;3.05;2.53;;;;;;;;;;5007167;28;20072;-54
2021/12/25 09:17:10;;;;;;;2.90;2.42;;;;;;;;;;5010848;28;20025;-55
2021/12/25 09:19:36;;;;;;;3.20;2.90;;;;;;;;;;5006150;28;20424;-55
2021/12/25 09:22:02;;;;;;;3.40;3.10;;;;;;;;;;5011555;28;20415;-55
2021/12/25 09:24:28;;;;;;;3.63;3.28;;;;;;;;;;5005370;28;20468;-55
2021/12/25 09:26:53;;;;;;;3.35;2.67;;;;;;;;;;5008196;28;20046;-55
2021/12/25 09:29:19;;;;;;;3.72;3.10;;;;;;;;;;5009465;28;20026;-53
2021/12/25 09:31:45;;;;;;;4.18;3.35;;;;;;;;;;5004541;28;20507;-53
2021/12/25 09:34:10;;;;;;;4.53;3.20;;;;;;;;;;5008341;28;20365;-53
2021/12/25 09:36:36;;;;;;;4.07;3.65;;;;;;;;;;4999485;28;20125;-52
2021/12/25 09:39:04;;;;;;;3.40;2.78;;;;;;;;;;5006394;28;20060;-54
2021/12/25 09:41:30;;;;;;;3.40;3.10;;;;;;;;;;5004738;28;20491;-53
2021/12/25 09:43:55;;;;;;;2.80;2.40;;;;;;;;;;5005872;28;20037;-53
2021/12/25 09:46:21;;;;;;;3.95;3.55;;;;;;;;;;5004930;28;20037;-52
2021/12/25 09:48:50;;;;;;;3.35;2.90;;;;;;;;;;5011370;28;20376;-53
2021/12/25 09:51:15;;;;;;;3.55;3.10;;;;;;;;;;5008407;28;20124;-53
2021/12/25 09:53:41;;;;;;;4.15;3.17;;;;;;;;;;5005682;28;20424;-51
2021/12/25 09:56:07;;;;;;;2.97;2.45;;;;;;;;;;5006718;28;20097;-50
2021/12/25 09:58:32;;;;;;;4.22;3.10;;;;;;;;;;5014441;28;20079;-49
2021/12/25 10:00:58;;;;;;;3.35;2.97;;;;;;;;;;5010219;28;20546;-48
2021/12/25 10:03:25;;;;;;;3.50;3.10;;;;;;;;;;5011504;28;20037;-52
2021/12/25 10:05:52;;;;;;;3.50;3.03;;;;;;;;;;5005120;28;20045;-51
2021/12/25 10:08:19;;;;;;;4.50;3.10;;;;;;;;;;5009640;28;20033;-51
2021/12/25 10:10:50;;;;;;;3.78;3.05;;;;;;;;;;5003879;28;20038;-50
2021/12/25 10:13:41;;;;;;;3.00;2.58;;;;;;;;;;4998628;28;20460;-50
2021/12/25 10:16:28;;;;;;;3.13;2.70;;;;;;;;;;5001444;28;20425;-54
2021/12/25 10:19:10;;;;;;;4.07;3.55;;;;;;;;;;5005386;28;20041;-50
2021/12/25 10:21:36;;;;;;;3.80;3.33;;;;;;;;;;5007059;28;20125;-54
2021/12/25 10:24:02;;;;;;;3.95;3.08;;;;;;;;;;5005211;28;20117;-53
2021/12/25 10:26:27;;;;;;;3.22;2.92;;;;;;;;;;5007416;28;20042;-52
2021/12/25 10:28:53;;;;;;;3.15;2.85;;;;;;;;;;5007823;28;20653;-54
2021/12/25 10:31:30;;;;;;;3.42;3.13;;;;;;;;;;5004456;28;20044;-49
2021/12/25 10:33:56;;;;;;;3.70;2.70;;;;;;;;;;5009628;28;20022;-55
2021/12/25 10:36:34;;;;;;;3.50;3.20;;;;;;;;;;5005257;28;20044;-52
2021/12/25 10:39:17;;;;;;;4.22;3.25;;;;;;;;;;5006484;28;20042;-55
2021/12/25 10:41:58;;;;;;;3.70;3.15;;;;;;;;;;5005922;28;20057;-53
2021/12/25 10:44:27;;;;;;;3.58;3.22;;;;;;;;;;5008207;28;20034;-54
2021/12/25 10:46:54;;;;;;;3.70;3.30;;;;;;;;;;5004366;28;20029;-52
2021/12/25 10:49:21;;;;;;;3.42;3.13;;;;;;;;;;5002427;28;20085;-55
2021/12/25 10:51:47;;;;;;;3.30;3.00;;;;;;;;;;5003223;28;20034;-50
2021/12/25 10:54:15;;;;;;;3.20;2.90;;;;;;;;;;5008220;28;20052;-54
2021/12/25 10:56:43;;;;;;;3.33;3.03;;;;;;;;;;5005260;28;20022;-56
2021/12/25 10:59:12;;;;;;;4.15;3.08;;;;;;;;;;5006783;28;20061;-55
2021/12/25 11:01:45;;;;;;;2.97;2.67;;;;;;;;;;5005800;28;20046;-57
2021/12/25 11:04:27;;;;;;;4.13;3.00;;;;;;;;;;5002141;28;20045;-57
2021/12/25 11:06:52;;;;;;;3.80;3.40;;;;;;;;;;5007574;28;20121;-57
2021/12/25 11:09:18;;;;;;;3.67;3.38;;;;;;;;;;5006124;28;20173;-57
2021/12/25 11:11:43;;;;;;;5.10;2.78;;;;;;;;;;5009424;28;20045;-57
2021/12/25 11:14:12;;;;;;;3.42;3.13;;;;;;;;;;5009614;28;20440;-58
2021/12/25 11:16:39;;;;;;;3.90;3.03;;;;;;;;;;5000564;28;20114;-55
2021/12/25 11:19:12;;;;;;;3.70;3.33;;;;;;;;;;5005573;28;20116;-55
2021/12/25 11:21:43;;;;;;;2.92;2.58;;;;;;;;;;5002971;28;20044;-56
2021/12/25 11:24:25;;;;;;;3.10;2.78;;;;;;;;;;5003265;28;20037;-56
2021/12/25 11:26:56;;;;;;;3.15;2.83;;;;;;;;;;5002341;28;20029;-56
2021/12/25 11:29:23;;;;;;;;;;;;;;;;;;5001283;28;20041;-57
2021/12/25 11:31:49;;;;;;;3.30;3.00;;;;;;;;;;5003624;28;20016;-57
2021/12/25 11:34:16;;;;;;;3.25;2.95;;;;;;;;;;5004272;28;20375;-55
2021/12/25 11:36:47;;;;;;;3.63;2.83;;;;;;;;;;5011098;28;20037;-56
2021/12/25 11:39:17;;;;;;;3.50;2.90;;;;;;;;;;5004698;28;20036;-56
2021/12/25 11:41:44;;;;;;;3.10;2.75;;;;;;;;;;5007327;28;20046;-56
2021/12/25 11:44:30;;;;;;;3.42;2.67;;;;;;;;;;5010223;28;20025;-58
2021/12/25 11:46:56;;;;;;;3.00;2.70;;;;;;;;;;5008008;28;20021;-57
2021/12/25 11:49:21;;;;;;;2.92;2.63;;;;;;;;;;5011199;28;20534;-56
2021/12/25 11:51:47;;;;;;;3.95;2.85;;;;;;;;;;5011016;28;20045;-56
2021/12/25 11:55:20;;;;;;;3.10;2.80;;;;;;;;;;5009111;28;20117;-57
2021/12/25 11:59:49;;;;;;;3.35;3.05;;;;;;;;;;5009052;28;20125;-57
2021/12/25 12:02:41;;;;;;;2.97;2.67;;;;;;;;;;5005192;28;20464;-57
2021/12/25 12:05:25;;;;;;;3.42;3.03;;;;;;;;;;5005167;28;20041;-57
2021/12/25 12:07:59;;;;;;;4.57;3.42;;;;;;;;;;5003995;28;20898;-57
2021/12/25 12:10:43;;;;;;;2.85;2.45;;;;;;;;;;5000789;28;20044;-57
2021/12/25 12:13:20;;;;;;;3.05;2.70;;;;;;;;;;5005543;28;20440;-57
2021/12/25 12:15:48;;;;;;;3.60;2.63;;;;;;;;;;5010149;28;20030;-57
2021/12/25 12:18:33;;;;;;;3.28;2.30;;;;;;;;;;5013191;28;20041;-57
2021/12/25 12:21:11;;;;;;;4.18;3.10;;;;;;;;;;5010209;28;20049;-57
2021/12/25 12:26:49;;;;;;;2.78;2.22;;;;;;;;;;5009149;28;20033;-58
2021/12/25 12:29:35;;;;;;;3.70;3.03;;;;;;;;;;5009043;28;20034;-58
2021/12/25 12:32:00;;;;;;;3.30;3.00;;;;;;;;;;5007601;28;20029;-56
2021/12/25 12:34:28;;;;;;;3.13;2.78;;;;;;;;;;5011196;28;20030;-57
2021/12/25 12:37:16;;;;;;;3.25;2.95;;;;;;;;;;4999266;28;20038;-57
2021/12/25 12:39:59;;;;;;;2.88;2.47;;;;;;;;;;5002923;28;20066;-57
2021/12/25 12:42:50;;;;;;;2.72;2.42;;;;;;;;;;5000845;28;20030;-55
2021/12/25 12:45:19;;;;;;;2.90;2.50;;;;;;;;;;5002468;28;20034;-57
2021/12/25 12:48:14;;;;;;;3.20;2.55;;;;;;;;;;5000788;28;20225;-56
2021/12/25 12:50:42;;;;;;;3.10;2.80;;;;;;;;;;5007186;28;20095;-57
2021/12/25 12:53:09;;;;;;;2.70;2.30;;;;;;;;;;5007340;28;20045;-57
2021/12/25 12:55:37;;;;;;;3.15;2.75;;;;;;;;;;5009547;28;20042;-58
2021/12/25 12:58:10;;;;;;;3.53;3.22;;;;;;;;;;5008767;28;20367;-57
2021/12/25 13:00:37;;;;;;;3.35;2.92;;;;;;;;;;5014496;28;20366;-57
2021/12/25 13:03:04;;;;;;;3.13;2.70;;;;;;;;;;5010108;28;20378;-57
2021/12/25 13:05:34;;;;;;;3.25;2.95;;;;;;;;;;5008723;28;20117;-59
2021/12/25 13:08:02;;;;;;;3.03;2.70;;;;;;;;;;5012983;28;20029;-58
2021/12/25 13:10:37;;;;;;;3.50;2.72;;;;;;;;;;5005582;28;20038;-58
2021/12/25 13:13:15;;;;;;;3.25;2.90;;;;;;;;;;5005052;28;20080;-59
2021/12/25 13:15:43;;;;;;;3.58;3.22;;;;;;;;;;5004168;28;20168;-59
2021/12/25 13:18:10;;;;;;;3.05;2.45;;;;;;;;;;4999821;28;20321;-58
2021/12/25 13:20:40;;;;;;;2.70;2.30;;;;;;;;;;5008618;28;20025;-58
2021/12/25 13:23:09;;;;;;;3.58;2.70;;;;;;;;;;5007683;28;20040;-58
2021/12/25 13:25:42;;;;;;;3.67;3.00;;;;;;;;;;5011411;28;20037;-58
2021/12/25 13:28:07;;;;;;;3.40;2.97;;;;;;;;;;5007975;28;20064;-59
2021/12/25 13:30:33;;;;;;;3.40;2.63;;;;;;;;;;5005796;28;20478;-58
2021/12/25 13:33:12;;;;;;;3.63;3.10;;;;;;;;;;5009350;28;20503;-57
2021/12/25 13:35:38;;;;;;;2.90;2.50;;;;;;;;;;5015995;28;20041;-59
2021/12/25 13:38:05;;;;;;;3.50;2.58;;;;;;;;;;5011562;28;20047;-57
2021/12/25 13:40:31;;;;;;;2.90;2.50;;;;;;;;;;5005111;28;20524;-58
2021/12/25 13:43:06;;;;;;;3.28;2.97;;;;;;;;;;5006001;28;20123;-57
2021/12/25 13:45:32;;;;;;;3.05;2.50;;;;;;;;;;5002826;28;20033;-56
2021/12/25 13:47:57;;;;;;;3.60;2.90;;;;;;;;;;5007205;28;20531;-57
2021/12/25 13:50:23;;;;;;;3.53;2.95;;;;;;;;;;5004686;28;20041;-58
2021/12/25 13:52:58;;;;;;;3.17;2.67;;;;;;;;;;5003032;28;20030;-58
2021/12/25 13:55:30;;;;;;;2.80;2.42;;;;;;;;;;5004336;28;20080;-58
2021/12/25 13:58:03;;;;;;;3.00;2.50;;;;;;;;;;5006946;28;20088;-50
2021/12/25 14:00:32;;;;;;;4.28;3.88;;;;;;;;;;5001500;28;20448;-51
2021/12/25 14:03:01;;;;;;;3.60;3.22;;;;;;;;;;5000823;28;20041;-52
2021/12/25 14:05:30;;;;;;;3.65;2.90;;;;;;;;;;5004858;28;20026;-52
2021/12/25 14:07:56;;;;;;;3.28;2.90;;;;;;;;;;5011696;28;20131;-53
2021/12/25 14:10:26;;;;;;;2.95;2.42;;;;;;;;;;5008398;28;20034;-49
2021/12/25 14:13:01;;;;;;;3.03;2.72;;;;;;;;;;5005529;28;20040;-50
2021/12/25 14:15:32;;;;;;;8.73;3.30;;;;;;;;;;5007856;28;20364;-52
2021/12/25 14:17:58;;;;;;;2.92;2.42;;;;;;;;;;5004806;28;20125;-50
2021/12/25 14:20:27;;;;;;;2.85;2.45;;;;;;;;;;5002371;28;20038;-53
2021/12/25 14:23:01;;;;;;;3.63;3.10;;;;;;;;;;5008099;28;20038;-51
2021/12/25 14:25:30;;;;;;;3.03;2.65;;;;;;;;;;5002567;28;20102;-50
2021/12/25 14:28:17;;;;;;;3.40;2.85;;;;;;;;;;5004774;28;20096;-51
2021/12/25 14:31:08;;;;;;;3.17;2.88;;;;;;;;;;5002401;28;20080;-50
2021/12/25 14:33:57;;;;;;;2.92;2.53;;;;;;;;;;4999870;28;20048;-53
2021/12/25 14:36:24;;;;;;;3.58;2.80;;;;;;;;;;5004317;28;20037;-53
2021/12/25 14:38:51;;;;;;;3.08;2.72;;;;;;;;;;5006014;28;20037;-50
2021/12/25 14:41:34;;;;;;;3.78;2.80;;;;;;;;;;5022310;28;20030;-51
2021/12/25 14:44:13;;;;;;;3.53;2.85;;;;;;;;;;5007617;28;20479;-51
2021/12/25 14:46:38;;;;;;;4.75;3.08;;;;;;;;;;5007180;28;20048;-51
2021/12/25 14:49:04;;;;;;;3.35;2.75;;;;;;;;;;5005024;28;21089;-51
2021/12/25 14:51:34;;;;;;;3.55;3.17;;;;;;;;;;5010795;28;20033;-50
2021/12/25 14:54:00;;;;;;;3.35;3.05;;;;;;;;;;5008484;28;20025;-51
2021/12/25 14:56:28;;;;;;;3.10;2.67;;;;;;;;;;5007279;28;20018;-53
2021/12/25 14:58:59;;;;;;;4.45;3.55;;;;;;;;;;5010079;28;20031;-52
2021/12/25 15:01:27;;;;;;;3.22;2.38;;;;;;;;;;5005267;28;20112;-53
2021/12/25 15:04:28;;;;;;;3.50;2.97;;;;;;;;;;5009684;28;20030;-50
2021/12/25 15:06:56;;;;;;;2.95;2.63;;;;;;;;;;5001478;28;20411;-51
2021/12/25 15:09:27;;;;;;;3.42;2.85;;;;;;;;;;4999805;28;20037;-50
2021/12/25 15:12:05;;;;;;;2.97;2.58;;;;;;;;;;5006210;28;20041;-51
2021/12/25 15:14:34;;;;;;;3.10;2.72;;;;;;;;;;5006704;28;20120;-51
2021/12/25 15:17:05;;;;;;;3.95;3.35;;;;;;;;;;5006038;28;20092;-51
2021/12/25 15:19:34;;;;;;;3.38;2.83;;;;;;;;;;5008319;28;20048;-49
2021/12/25 15:22:08;;;;;;;3.47;3.13;;;;;;;;;;5009398;28;20049;-49
2021/12/25 15:24:34;;;;;;;2.97;2.47;;;;;;;;;;5007238;28;20050;-50
2021/12/25 15:27:06;;;;;;;3.25;2.95;;;;;;;;;;5010460;28;20533;-50
2021/12/25 15:29:35;;;;;;;3.50;2.70;;;;;;;;;;4999759;28;20033;-52
2021/12/25 15:32:04;;;;;;;3.83;3.38;;;;;;;;;;5005664;28;20074;-51
2021/12/25 15:34:30;;;;;;;6.15;4.07;;;;;;;;;;5006075;28;20045;-51
2021/12/25 15:36:56;;;;;;;3.70;3.22;;;;;;;;;;5003240;28;20026;-51
2021/12/25 15:39:24;;;;;;;4.35;3.67;;;;;;;;;;5005702;28;20038;-52
2021/12/25 15:41:52;;;;;;;3.33;3.03;;;;;;;;;;4999315;28;20094;-50
2021/12/25 15:44:20;;;;;;;4.05;3.28;;;;;;;;;;5002800;28;20061;-48
2021/12/25 15:46:48;;;;;;;4.47;3.40;;;;;;;;;;5003246;28;20030;-50
2021/12/25 15:49:14;;;;;;;3.22;2.78;;;;;;;;;;5003271;28;20041;-51
2021/12/25 15:51:40;;;;;;;3.20;2.70;;;;;;;;;;5004589;28;20037;-49
2021/12/25 15:54:06;;;;;;;3.55;3.05;;;;;;;;;;5007186;28;20061;-51
2021/12/25 15:56:32;;;;;;;3.40;3.10;;;;;;;;;;5005807;28;20050;-53
2021/12/25 15:58:58;;;;;;;4.68;3.85;;;;;;;;;;5008058;28;20037;-52
2021/12/25 16:01:24;;;;;;;3.25;2.92;;;;;;;;;;5005927;28;20030;-53
2021/12/25 16:03:50;;;;;;;4.20;3.58;;;;;;;;;;5006378;28;20041;-53
2021/12/25 16:06:16;;;;;;;5.55;4.10;;;;;;;;;;5010517;28;20030;-52
2021/12/25 16:08:41;;;;;;;5.18;3.53;;;;;;;;;;5005619;28;20038;-52
2021/12/25 16:11:08;;;;;;;4.15;3.75;;;;;;;;;;5004441;28;20033;-51
2021/12/25 16:13:34;;;;;;;6.60;3.72;;;;;;;;;;5005593;28;20030;-52
2021/12/25 16:16:00;;;;;;;3.83;3.10;;;;;;;;;;4999646;28;20034;-53
2021/12/25 16:18:27;;;;;;;4.65;3.33;;;;;;;;;;4999953;28;20519;-52
2021/12/25 16:20:54;;;;;;;3.97;3.38;;;;;;;;;;5000993;28;20034;-53